Time;durP1;ratioP1;P1;durP2;ratioP2;P2;SDS_P1;SDS_P2;PMS_P1;PMS_P2;Temp;Humidity;BMP_temperature;BMP_pressure;BME280_temperature;BME280_humidity;BME280_pressure;Samples;Min_cycle;Max_cycle;Signal;HPM_P1;HPM_P2
2021/09/01 00:00:51;;;;;;;8.90;8.10;;;;;;;16.08;86.12;97165.84;5073580;28;20625;-62
2021/09/01 00:03:16;;;;;;;8.87;8.07;;;;;;;15.98;86.05;97161.16;5073095;28;20258;-66
2021/09/01 00:05:42;;;;;;;8.47;7.77;;;;;;;15.93;86.51;97169.03;5067852;28;20209;-67
2021/09/01 00:08:07;;;;;;;9.33;8.50;;;;;;;15.94;86.63;97164.56;5073433;28;20505;-63
2021/09/01 00:10:33;;;;;;;9.10;8.20;;;;;;;15.98;86.10;97163.03;5073400;28;20186;-66
2021/09/01 00:12:59;;;;;;;9.70;8.73;;;;;;;15.87;86.70;97163.91;5072865;28;20677;-63
2021/09/01 00:15:24;;;;;;;12.23;8.77;;;;;;;15.76;87.56;97167.41;5073203;28;20200;-62
2021/09/01 00:17:50;;;;;;;9.33;8.53;;;;;;;15.76;87.22;97168.19;5073299;28;20409;-62
2021/09/01 00:20:15;;;;;;;9.07;8.27;;;;;;;15.81;86.98;97168.31;5064987;28;20549;-63
2021/09/01 00:22:41;;;;;;;10.10;8.63;;;;;;;15.80;86.99;97169.34;5052920;28;20528;-63
2021/09/01 00:25:08;;;;;;;9.07;8.17;;;;;;;15.82;86.67;97169.91;5052873;28;20702;-67
2021/09/01 00:27:34;;;;;;;8.70;7.80;;;;;;;15.77;86.75;97169.81;5053067;28;20177;-66
2021/09/01 00:29:59;;;;;;;10.93;9.03;;;;;;;15.81;86.87;97172.81;5053018;28;20444;-63
2021/09/01 00:32:24;;;;;;;10.30;9.30;;;;;;;15.68;87.45;97162.50;5053112;28;20537;-67
2021/09/01 00:34:50;;;;;;;10.30;9.30;;;;;;;15.70;87.59;97166.53;5058983;28;20186;-63
2021/09/01 00:37:15;;;;;;;10.00;9.00;;;;;;;15.66;87.60;97168.03;5073274;28;20166;-67
2021/09/01 00:39:41;;;;;;;10.87;9.93;;;;;;;15.63;87.75;97163.22;5073001;28;20228;-67
2021/09/01 00:42:08;;;;;;;10.57;9.47;;;;;;;15.57;87.95;97161.50;5073468;28;20175;-67
2021/09/01 00:44:34;;;;;;;9.97;8.90;;;;;;;15.42;88.90;97162.03;5060511;28;20290;-63
2021/09/01 00:46:59;;;;;;;10.03;9.03;;;;;;;15.45;89.24;97166.06;5052949;28;20436;-67
2021/09/01 00:49:29;;;;;;;10.83;9.30;;;;;;;15.60;88.24;97160.25;5061756;28;20425;-67
2021/09/01 00:51:56;;;;;;;9.43;8.47;;;;;;;15.50;88.40;97158.19;5072853;28;20517;-67
2021/09/01 00:54:25;;;;;;;12.30;8.70;;;;;;;15.36;89.07;97154.97;5072287;28;20466;-63
2021/09/01 00:57:02;;;;;;;9.27;7.70;;;;;;;15.44;88.75;97162.59;5071512;28;20919;-67
2021/09/01 00:59:35;;;;;;;9.33;8.43;;;;;;;15.50;88.33;97163.50;5072987;28;20461;-63
2021/09/01 01:02:04;;;;;;;8.80;7.97;;;;;;;15.31;88.49;97160.19;5072997;28;20462;-67
2021/09/01 01:04:30;;;;;;;7.80;7.10;;;;;;;15.33;88.80;97158.09;5065858;28;20461;-63
2021/09/01 01:06:58;;;;;;;9.07;8.20;;;;;;;15.41;87.74;97163.06;5056916;28;20415;-63
2021/09/01 01:09:23;;;;;;;9.90;8.33;;;;;;;15.40;87.70;97165.91;5056448;28;20490;-67
2021/09/01 01:12:04;;;;;;;8.57;7.70;;;;;;;15.44;87.12;97165.25;5056565;28;20959;-63
2021/09/01 01:14:33;;;;;;;10.60;9.50;;;;;;;15.47;87.22;97168.47;5056039;28;20191;-67
2021/09/01 01:16:58;;;;;;;8.87;8.03;;;;;;;15.40;86.73;97164.09;5057300;28;20916;-63
2021/09/01 01:19:23;;;;;;;8.90;7.93;;;;;;;15.28;87.54;97165.16;5056209;28;20413;-66
2021/09/01 01:21:49;;;;;;;8.30;7.50;;;;;;;15.20;87.81;97163.66;5056235;28;20587;-67
2021/09/01 01:24:14;;;;;;;8.47;7.57;;;;;;;15.21;87.81;97165.28;5055574;28;20179;-63
2021/09/01 01:26:39;;;;;;;8.40;7.67;;;;;;;15.42;86.96;97158.56;5056222;28;20509;-62
2021/09/01 01:29:10;;;;;;;8.20;7.37;;;;;;;15.31;86.86;97159.38;5073515;28;20670;-62
2021/09/01 01:31:39;;;;;;;10.87;8.77;;;;;;;15.34;87.34;97157.06;5076221;28;20171;-66
2021/09/01 01:34:14;;;;;;;10.47;9.37;;;;;;;15.28;87.42;97159.84;5075614;28;20484;-63
2021/09/01 01:36:40;;;;;;;11.67;10.47;;;;;;;15.37;87.30;97158.44;5076086;28;20883;-66
2021/09/01 01:39:06;;;;;;;10.10;9.00;;;;;;;15.44;87.53;97152.00;5076083;28;20413;-67
2021/09/01 01:41:31;;;;;;;11.83;10.57;;;;;;;15.39;88.49;97161.66;5075964;28;20171;-67
2021/09/01 01:43:57;;;;;;;13.20;11.80;;;;;;;15.45;88.26;97158.09;5064357;28;20424;-66
2021/09/01 01:46:22;;;;;;;12.67;10.87;;;;;;;15.50;88.09;97157.38;5075791;28;20203;-66
2021/09/01 01:48:49;;;;;;;12.47;10.23;;;;;;;15.43;88.32;97152.25;5075772;28;20171;-67
2021/09/01 01:51:15;;;;;;;11.67;10.40;;;;;;;15.45;87.99;97158.09;5075905;28;20273;-67
2021/09/01 01:53:40;;;;;;;11.70;10.50;;;;;;;15.38;88.60;97158.19;5070606;28;20951;-63
2021/09/01 01:56:05;;;;;;;12.63;11.37;;;;;;;15.43;88.44;97161.00;5075710;28;20193;-62
2021/09/01 01:58:31;;;;;;;12.40;10.80;;;;;;;15.42;88.37;97155.91;5075803;28;20245;-67
2021/09/01 02:00:57;;;;;;;12.27;10.60;;;;;;;15.37;88.50;97161.91;5075693;28;20170;-67
2021/09/01 02:03:22;;;;;;;11.90;10.70;;;;;;;15.41;88.30;97163.06;5075263;28;20166;-62
2021/09/01 02:05:47;;;;;;;13.27;11.87;;;;;;;15.42;88.08;97158.56;5075349;28;21023;-67
2021/09/01 02:08:13;;;;;;;14.33;11.33;;;;;;;15.41;88.43;97156.97;5074767;28;20555;-66
2021/09/01 02:10:38;;;;;;;13.93;11.80;;;;;;;15.40;88.71;97157.97;5057111;28;20183;-62
2021/09/01 02:13:04;;;;;;;13.43;11.70;;;;;;;15.34;88.33;97153.63;5055055;28;20180;-67
2021/09/01 02:15:29;;;;;;;12.67;11.20;;;;;;;15.41;88.52;97157.78;5054242;28;20680;-63
2021/09/01 02:17:55;;;;;;;12.00;10.80;;;;;;;15.41;88.66;97159.63;5055118;28;20266;-63
2021/09/01 02:20:21;;;;;;;14.03;11.70;;;;;;;15.43;88.59;97161.00;5055194;28;20217;-63
2021/09/01 02:22:47;;;;;;;13.33;12.00;;;;;;;15.30;89.54;97163.88;5068040;28;20185;-66
2021/09/01 02:25:13;;;;;;;12.67;11.33;;;;;;;15.24;89.85;97161.34;5074812;28;20209;-62
2021/09/01 02:27:39;;;;;;;13.47;11.97;;;;;;;15.21;90.64;97169.78;5074944;28;20405;-66
2021/09/01 02:30:07;;;;;;;13.33;11.80;;;;;;;15.19;90.51;97166.56;5075060;28;20409;-63
2021/09/01 02:32:32;;;;;;;12.10;10.60;;;;;;;15.09;90.34;97167.16;5074966;28;20409;-62
2021/09/01 02:34:57;;;;;;;14.50;11.13;;;;;;;15.10;90.60;97167.97;5074387;28;20440;-63
2021/09/01 02:37:23;;;;;;;11.70;10.50;;;;;;;15.11;90.29;97156.34;5062472;28;20258;-67
2021/09/01 02:39:48;;;;;;;10.97;9.87;;;;;;;15.00;90.82;97162.47;5054867;28;20650;-62
2021/09/01 02:42:14;;;;;;;12.70;10.87;;;;;;;15.10;90.36;97163.47;5054925;28;20171;-62
2021/09/01 02:44:39;;;;;;;12.90;10.37;;;;;;;15.11;90.40;97170.38;5054207;28;20237;-62
2021/09/01 02:47:05;;;;;;;11.47;10.00;;;;;;;15.01;90.62;97164.88;5054581;28;20178;-62
2021/09/01 02:49:30;;;;;;;11.80;10.63;;;;;;;15.08;90.35;97170.84;5069015;28;20256;-63
2021/09/01 02:51:56;;;;;;;14.00;11.80;;;;;;;15.12;89.55;97171.19;5074529;28;20528;-67
2021/09/01 02:54:21;;;;;;;12.10;10.67;;;;;;;15.15;89.38;97165.41;5073923;28;20175;-63
2021/09/01 02:56:46;;;;;;;11.10;9.93;;;;;;;15.12;89.08;97171.19;5074370;28;20253;-63
2021/09/01 02:59:12;;;;;;;12.20;10.37;;;;;;;15.16;89.02;97167.03;5074470;28;20727;-63
2021/09/01 03:01:37;;;;;;;12.00;10.73;;;;;;;15.13;88.79;97170.94;5061865;28;20214;-63
2021/09/01 03:04:03;;;;;;;11.40;10.23;;;;;;;15.14;88.41;97175.22;5053895;28;20574;-63
2021/09/01 03:06:28;;;;;;;10.93;9.80;;;;;;;15.11;88.13;97165.06;5054286;28;20199;-67
2021/09/01 03:08:54;;;;;;;11.97;10.23;;;;;;;15.07;87.37;97160.50;5054339;28;20221;-62
2021/09/01 03:11:19;;;;;;;14.17;9.60;;;;;;;14.88;88.85;97161.66;5054303;28;20206;-62
2021/09/01 03:13:44;;;;;;;12.93;10.60;;;;;;;14.85;88.98;97170.06;5053763;28;20661;-66
2021/09/01 03:16:10;;;;;;;10.23;9.20;;;;;;;14.76;89.36;97169.63;5054161;28;20252;-66
2021/09/01 03:18:35;;;;;;;12.03;9.70;;;;;;;14.81;89.02;97161.81;5054059;28;20306;-67
2021/09/01 03:21:01;;;;;;;10.20;8.87;;;;;;;14.88;88.29;97165.13;5054153;28;20258;-63
2021/09/01 03:23:26;;;;;;;10.13;9.07;;;;;;;14.86;87.82;97167.19;5053592;28;20168;-67
2021/09/01 03:25:51;;;;;;;10.00;8.30;;;;;;;14.78;88.47;97167.56;5053819;28;20210;-62
2021/09/01 03:28:17;;;;;;;12.67;8.17;;;;;;;14.77;88.53;97168.59;5054235;28;20167;-66
2021/09/01 03:30:42;;;;;;;9.97;8.60;;;;;;;14.79;88.35;97165.72;5073838;28;20174;-63
2021/09/01 03:33:08;;;;;;;11.10;8.90;;;;;;;14.74;88.61;97162.97;5073453;28;20559;-67
2021/09/01 03:35:33;;;;;;;11.53;8.50;;;;;;;14.77;88.77;97167.78;5073738;28;20182;-67
2021/09/01 03:37:58;;;;;;;11.30;9.90;;;;;;;14.67;88.44;97168.38;5073999;28;20174;-62
2021/09/01 03:40:24;;;;;;;11.33;9.90;;;;;;;14.58;89.16;97168.94;5073653;28;20178;-66
2021/09/01 03:42:49;;;;;;;11.03;9.77;;;;;;;14.74;88.17;97169.06;5073409;28;20171;-66
2021/09/01 03:45:14;;;;;;;9.47;8.57;;;;;;;14.75;87.86;97168.00;5054416;28;20720;-67
2021/09/01 03:47:40;;;;;;;10.00;9.00;;;;;;;14.72;88.13;97168.47;5053966;28;20171;-67
2021/09/01 03:50:08;;;;;;;9.60;8.60;;;;;;;14.74;87.80;97168.25;5053633;28;20195;-67
2021/09/01 03:52:33;;;;;;;10.03;8.70;;;;;;;14.69;88.31;97173.44;5053529;28;20406;-66
2021/09/01 03:55:01;;;;;;;9.90;8.90;;;;;;;14.63;88.75;97175.16;5063994;28;20452;-66
2021/09/01 03:57:27;;;;;;;12.87;9.27;;;;;;;14.70;88.64;97181.13;5073415;28;20171;-67
2021/09/01 03:59:52;;;;;;;9.97;8.57;;;;;;;14.62;88.85;97192.06;5058910;28;20433;-66
2021/09/01 04:02:17;;;;;;;10.03;8.73;;;;;;;14.45;89.69;97183.22;5053591;28;20172;-63
2021/09/01 04:04:43;;;;;;;12.83;9.80;;;;;;;14.53;89.30;97184.72;5052945;28;20723;-62
2021/09/01 04:07:08;;;;;;;10.00;9.00;;;;;;;14.56;88.84;97176.31;5053506;28;20171;-62
2021/09/01 04:09:33;;;;;;;12.93;8.80;;;;;;;14.64;88.42;97174.09;5052205;28;20182;-62
2021/09/01 04:11:59;;;;;;;12.63;9.63;;;;;;;14.65;88.11;97177.56;5053335;28;20171;-63
2021/09/01 04:14:24;;;;;;;11.20;9.80;;;;;;;14.62;88.00;97185.97;5063676;28;20244;-63
2021/09/01 04:16:50;;;;;;;11.43;9.60;;;;;;;14.61;87.79;97185.16;5073301;28;20171;-67
2021/09/01 04:19:15;;;;;;;11.30;10.10;;;;;;;14.53;87.81;97182.84;5073322;28;20182;-63
2021/09/01 04:21:40;;;;;;;9.33;8.43;;;;;;;14.47;88.08;97191.72;5073334;28;20644;-67
2021/09/01 04:24:06;;;;;;;10.70;9.60;;;;;;;14.41;88.03;97196.09;5072612;28;20173;-63
2021/09/01 04:26:32;;;;;;;11.27;9.80;;;;;;;14.54;87.91;97188.94;5066511;28;20205;-63
2021/09/01 04:28:57;;;;;;;9.60;8.60;;;;;;;14.50;87.53;97193.91;5053080;28;20171;-63
2021/09/01 04:31:23;;;;;;;9.73;8.73;;;;;;;14.51;87.55;97179.66;5053195;28;20646;-62
2021/09/01 04:33:48;;;;;;;11.03;9.43;;;;;;;14.53;87.27;97187.34;5052929;28;20254;-62
2021/09/01 04:36:14;;;;;;;9.93;8.70;;;;;;;14.51;87.21;97187.59;5053097;28;20242;-67
2021/09/01 04:38:39;;;;;;;10.37;8.03;;;;;;;14.42;87.49;97186.31;5053270;28;20167;-67
2021/09/01 04:41:04;;;;;;;10.10;9.10;;;;;;;14.41;87.44;97189.97;5061286;28;20533;-63
2021/09/01 04:43:30;;;;;;;10.20;8.00;;;;;;;14.43;87.45;97188.72;5076789;28;20228;-63
2021/09/01 04:45:55;;;;;;;9.90;8.70;;;;;;;14.44;87.63;97195.63;5076847;28;20214;-63
2021/09/01 04:48:21;;;;;;;10.50;9.33;;;;;;;14.40;87.13;97194.47;5076901;28;20246;-62
2021/09/01 04:50:46;;;;;;;9.43;8.53;;;;;;;14.36;87.59;97195.97;5061507;28;20539;-67
2021/09/01 04:53:12;;;;;;;9.77;8.83;;;;;;;14.50;86.62;97199.19;5056520;28;20171;-67
2021/09/01 04:55:37;;;;;;;9.70;8.70;;;;;;;14.44;86.52;97197.44;5073122;28;20202;-62
2021/09/01 04:58:03;;;;;;;12.87;9.60;;;;;;;14.37;87.31;97197.56;5076572;28;20178;-67
2021/09/01 05:00:28;;;;;;;10.20;9.20;;;;;;;14.32;87.83;97196.63;5076658;28;20175;-62
2021/09/01 05:02:54;;;;;;;11.13;9.40;;;;;;;14.26;88.47;97201.00;5076301;28;20175;-66
2021/09/01 05:05:19;;;;;;;13.90;9.70;;;;;;;14.30;88.30;97207.44;5075617;28;20668;-67
2021/09/01 05:07:44;;;;;;;11.10;9.93;;;;;;;14.40;88.26;97201.59;5059270;28;20637;-67
2021/09/01 05:10:11;;;;;;;9.10;8.20;;;;;;;14.47;87.53;97197.00;5056622;28;20172;-63
2021/09/01 05:12:36;;;;;;;12.00;10.50;;;;;;;14.42;87.73;97195.03;5056235;28;20167;-63
2021/09/01 05:15:03;;;;;;;11.43;10.23;;;;;;;14.37;88.04;97199.41;5056272;28;20453;-63
2021/09/01 05:17:28;;;;;;;10.37;9.33;;;;;;;14.49;87.33;97202.06;5060244;28;20185;-63
2021/09/01 05:19:53;;;;;;;10.57;9.47;;;;;;;14.43;87.34;97199.31;5076615;28;20409;-62
2021/09/01 05:22:21;;;;;;;11.80;8.70;;;;;;;14.38;87.74;97201.03;5076519;28;20250;-62
2021/09/01 05:25:04;;;;;;;9.93;8.70;;;;;;;14.43;87.88;97204.59;5075590;28;20302;-67
2021/09/01 05:27:35;;;;;;;10.57;9.47;;;;;;;14.34;88.24;97211.25;5076091;28;20436;-63
2021/09/01 05:30:03;;;;;;;11.37;8.73;;;;;;;14.53;87.79;97213.81;5076278;28;20409;-63
2021/09/01 05:32:30;;;;;;;11.33;8.90;;;;;;;14.48;88.02;97211.00;5069708;28;20433;-67
2021/09/01 05:34:58;;;;;;;11.00;9.37;;;;;;;14.42;88.75;97215.41;5055602;28;20486;-63
2021/09/01 05:37:24;;;;;;;11.97;9.50;;;;;;;14.55;88.60;97215.16;5056065;28;20958;-67
2021/09/01 05:39:51;;;;;;;13.13;11.73;;;;;;;14.58;88.69;97216.56;5055909;28;20406;-67
2021/09/01 05:42:22;;;;;;;13.37;10.40;;;;;;;14.59;89.31;97210.22;5055796;28;20262;-63
2021/09/01 05:44:49;;;;;;;13.27;10.00;;;;;;;14.68;88.97;97208.84;5055382;28;20450;-63
2021/09/01 05:47:16;;;;;;;12.97;10.70;;;;;;;14.74;89.16;97213.22;5058212;28;20487;-67
2021/09/01 05:49:44;;;;;;;14.00;10.23;;;;;;;14.78;89.39;97212.56;5064373;28;20424;-62
2021/09/01 05:52:10;;;;;;;11.80;9.47;;;;;;;14.73;89.74;97215.06;5075604;28;20896;-67
2021/09/01 05:54:39;;;;;;;12.40;11.10;;;;;;;14.76;90.07;97209.31;5075062;28;20516;-62
2021/09/01 05:57:13;;;;;;;12.20;10.20;;;;;;;14.92;89.47;97219.22;5075940;28;20397;-67
2021/09/01 05:59:56;;;;;;;13.60;11.13;;;;;;;15.00;89.46;97210.91;5075652;28;20413;-62
2021/09/01 06:03:17;;;;;;;12.50;10.70;;;;;;;14.93;90.41;97220.03;5075560;28;20818;-64
2021/09/01 06:05:44;;;;;;;12.47;9.50;;;;;;;14.96;90.51;97224.84;5012942;28;20467;-67
2021/09/01 06:08:11;;;;;;;12.60;10.50;;;;;;;15.03;90.83;97222.88;5063536;28;20416;-63
2021/09/01 06:10:37;;;;;;;13.93;11.03;;;;;;;15.12;90.34;97221.47;5075560;28;20763;-67
2021/09/01 06:13:03;;;;;;;12.40;10.47;;;;;;;15.14;91.10;97225.53;5063747;28;20418;-63
2021/09/01 06:15:28;;;;;;;11.83;10.40;;;;;;;15.19;91.19;97216.84;5055310;28;20861;-63
2021/09/01 06:17:54;;;;;;;14.03;11.23;;;;;;;15.26;91.68;97228.13;5055254;28;20176;-62
2021/09/01 06:20:20;;;;;;;14.97;11.73;;;;;;;15.23;92.35;97215.38;5055238;28;20502;-67
2021/09/01 06:22:46;;;;;;;14.40;11.90;;;;;;;15.25;92.89;97222.00;5054903;28;20653;-67
2021/09/01 06:25:12;;;;;;;13.13;11.07;;;;;;;15.33;92.79;97228.78;5054817;28;20619;-63
2021/09/01 06:27:38;;;;;;;15.97;13.27;;;;;;;15.49;92.25;97222.00;5063999;28;20429;-63
2021/09/01 06:30:06;;;;;;;15.13;12.50;;;;;;;15.61;92.48;97223.59;5074713;28;20499;-67
2021/09/01 06:32:31;;;;;;;15.67;13.60;;;;;;;15.72;92.25;97225.38;5074799;28;20435;-63
2021/09/01 06:34:57;;;;;;;17.67;13.27;;;;;;;15.79;92.39;97226.06;5074373;28;20429;-67
2021/09/01 06:37:22;;;;;;;19.57;14.70;;;;;;;15.80;93.28;97230.28;5074939;28;20654;-67
2021/09/01 06:39:51;;;;;;;21.00;15.60;;;;;;;15.83;93.80;97232.50;5074286;28;20175;-66
2021/09/01 06:42:16;;;;;;;21.67;17.63;;;;;;;15.89;94.47;97226.22;5054938;28;20182;-63
2021/09/01 06:44:42;;;;;;;21.60;16.93;;;;;;;15.85;95.54;97235.69;5054328;28;20804;-63
2021/09/01 06:47:07;;;;;;;21.13;16.53;;;;;;;15.92;95.95;97239.03;5054708;28;20171;-63
2021/09/01 06:49:33;;;;;;;19.90;16.33;;;;;;;16.11;95.30;97234.31;5054764;28;20202;-67
2021/09/01 06:51:58;;;;;;;20.50;16.80;;;;;;;16.24;94.57;97234.00;5054683;28;20172;-63
2021/09/01 06:54:23;;;;;;;22.13;16.93;;;;;;;16.17;95.38;97238.66;5054093;28;20277;-67
2021/09/01 06:56:49;;;;;;;20.83;16.73;;;;;;;16.17;96.02;97236.00;5072790;28;20205;-67
2021/09/01 06:59:14;;;;;;;19.20;16.70;;;;;;;16.35;95.23;97236.59;5059414;28;20179;-63
2021/09/01 07:01:39;;;;;;;20.70;16.30;;;;;;;16.46;94.86;97237.56;5053729;28;20603;-63
2021/09/01 07:04:05;;;;;;;19.57;16.70;;;;;;;16.45;94.46;97239.41;5053937;28;20182;-67
2021/09/01 07:06:30;;;;;;;20.80;15.90;;;;;;;16.55;94.87;97240.66;5054274;28;20207;-67
2021/09/01 07:08:55;;;;;;;19.33;15.97;;;;;;;16.63;94.29;97238.38;5054443;28;20640;-62
2021/09/01 07:11:21;;;;;;;15.50;13.83;;;;;;;16.71;94.02;97242.50;5054375;28;20176;-63
2021/09/01 07:13:46;;;;;;;14.57;13.03;;;;;;;16.78;93.93;97245.78;5054930;28;20175;-63
2021/09/01 07:16:13;;;;;;;18.80;16.07;;;;;;;16.82;94.18;97246.91;5054205;28;20272;-62
2021/09/01 07:18:38;;;;;;;17.67;15.13;;;;;;;16.89;94.06;97251.00;5054276;28;20312;-64
2021/09/01 07:21:03;;;;;;;16.50;14.80;;;;;;;16.97;93.77;97255.91;5059588;28;20515;-65
2021/09/01 07:23:29;;;;;;;19.27;16.00;;;;;;;17.05;93.93;97254.69;5073658;28;20170;-66
2021/09/01 07:25:55;;;;;;;15.93;14.23;;;;;;;16.94;94.59;97255.59;5063855;28;20684;-66
2021/09/01 07:28:20;;;;;;;15.20;13.60;;;;;;;16.99;94.61;97263.63;5071866;28;20171;-67
2021/09/01 07:30:45;;;;;;;13.90;12.50;;;;;;;17.07;94.55;97258.72;5073051;28;20177;-65
2021/09/01 07:33:11;;;;;;;13.10;11.70;;;;;;;17.11;94.82;97251.06;5072747;28;20198;-65
2021/09/01 07:35:36;;;;;;;16.80;14.40;;;;;;;17.16;94.86;97259.09;5074719;28;20550;-65
2021/09/01 07:38:01;;;;;;;17.03;12.87;;;;;;;17.25;94.42;97258.44;5093421;28;20261;-65
2021/09/01 07:40:27;;;;;;;14.13;12.00;;;;;;;17.31;94.21;97260.13;5093282;28;20174;-66
2021/09/01 07:42:52;;;;;;;14.33;12.83;;;;;;;17.38;94.22;97265.25;5091376;28;20173;-66
2021/09/01 07:45:19;;;;;;;15.77;14.17;;;;;;;17.47;94.25;97263.78;5092956;28;20213;-66
2021/09/01 07:47:46;;;;;;;13.97;12.60;;;;;;;17.47;94.38;97266.44;5093152;28;20166;-67
2021/09/01 07:50:12;;;;;;;18.43;13.73;;;;;;;17.57;94.04;97271.91;5069059;28;20430;-67
2021/09/01 07:52:37;;;;;;;16.50;13.97;;;;;;;17.62;94.09;97271.97;5052350;28;20424;-66
2021/09/01 07:55:03;;;;;;;15.40;12.53;;;;;;;17.71;93.85;97275.00;5064181;28;20206;-65
2021/09/01 07:57:28;;;;;;;14.97;13.47;;;;;;;17.80;93.73;97279.63;5071603;28;20621;-64
2021/09/01 07:59:53;;;;;;;15.70;13.53;;;;;;;17.87;93.51;97290.06;5072622;28;20174;-67
2021/09/01 08:02:19;;;;;;;14.50;12.93;;;;;;;17.96;92.92;97291.22;5072838;28;20242;-65
2021/09/01 08:04:44;;;;;;;15.90;14.30;;;;;;;18.00;93.11;97287.03;5071227;28;20229;-66
2021/09/01 08:07:10;;;;;;;11.83;10.63;;;;;;;18.07;92.69;97287.63;5072773;28;20237;-64
2021/09/01 08:09:35;;;;;;;13.40;12.00;;;;;;;18.09;93.04;97291.66;5072699;28;20575;-66
2021/09/01 08:12:00;;;;;;;14.80;13.30;;;;;;;18.14;92.65;97298.88;5072505;28;20250;-63
2021/09/01 08:14:26;;;;;;;15.90;14.20;;;;;;;17.79;92.84;97291.31;5070866;28;20598;-69
2021/09/01 08:16:51;;;;;;;14.97;13.30;;;;;;;17.97;93.03;97293.63;5068185;28;20254;-62
2021/09/01 08:19:16;;;;;;;16.10;14.50;;;;;;;18.10;92.35;97293.25;5049689;28;20176;-64
2021/09/01 08:21:42;;;;;;;17.57;13.90;;;;;;;18.19;92.11;97289.09;5047713;28;20603;-64
2021/09/01 08:24:09;;;;;;;16.33;14.00;;;;;;;18.25;92.26;97296.09;4995046;28;1531519;-65
2021/09/01 08:26:34;;;;;;;17.60;14.63;;;;;;;18.37;91.73;97299.38;5049698;28;20197;-61
2021/09/01 08:28:59;;;;;;;13.27;11.93;;;;;;;18.43;91.97;97310.91;5049668;28;20829;-65
2021/09/01 08:31:25;;;;;;;16.13;14.53;;;;;;;18.55;91.92;97305.44;5051215;28;20400;-67
2021/09/01 08:33:50;;;;;;;16.70;15.03;;;;;;;18.55;91.40;97302.78;5069278;28;20689;-63
2021/09/01 08:36:15;;;;;;;15.67;14.00;;;;;;;18.53;92.24;97308.38;5060449;28;20206;-69
2021/09/01 08:38:41;;;;;;;17.57;15.70;;;;;;;18.68;91.27;97305.03;5049704;28;20179;-72
2021/09/01 08:41:06;;;;;;;16.80;14.57;;;;;;;18.59;90.55;97303.91;5049529;28;20163;-70
2021/09/01 08:43:33;;;;;;;16.77;15.10;;;;;;;18.54;90.50;97312.63;5048663;28;20606;-67
2021/09/01 08:46:01;;;;;;;17.60;14.30;;;;;;;18.75;90.00;97309.06;5049345;28;20211;-71
2021/09/01 08:48:27;;;;;;;15.03;13.53;;;;;;;18.94;90.05;97318.31;5049404;28;20502;-67
2021/09/01 08:50:54;;;;;;;16.33;14.27;;;;;;;19.04;89.70;97317.59;5056756;28;20532;-70
2021/09/01 08:53:19;;;;;;;15.27;13.67;;;;;;;19.02;89.90;97315.16;5069125;28;20409;-71
2021/09/01 08:55:49;;;;;;;15.20;13.60;;;;;;;19.12;89.32;97306.44;5068883;28;20429;-67
2021/09/01 08:58:15;;;;;;;15.40;13.90;;;;;;;19.12;86.60;97315.25;5069437;28;20163;-67
2021/09/01 09:00:40;;;;;;;13.37;12.07;;;;;;;19.12;86.99;97309.09;5068035;28;20440;-67
2021/09/01 09:03:08;;;;;;;15.70;13.07;;;;;;;18.90;85.99;97305.75;5054127;28;20629;-68
2021/09/01 09:05:36;;;;;;;13.50;12.20;;;;;;;19.16;87.05;97307.53;5049175;28;20653;-67
2021/09/01 09:08:04;;;;;;;12.90;11.60;;;;;;;19.36;87.38;97305.84;5048776;28;20402;-71
2021/09/01 09:10:37;;;;;;;11.80;10.67;;;;;;;19.51;86.71;97301.66;5049294;28;21207;-67
2021/09/01 09:13:15;;;;;;;13.77;12.33;;;;;;;19.68;86.50;97295.06;5054798;28;20411;-67
2021/09/01 09:15:42;;;;;;;12.57;10.73;;;;;;;19.85;86.22;97289.53;5089539;28;20481;-71
2021/09/01 09:18:28;;;;;;;12.27;11.07;;;;;;;19.94;85.91;97294.13;5069847;28;20428;-67
2021/09/01 09:21:21;;;;;;;12.63;11.43;;;;;;;19.69;83.75;97287.88;5049158;28;20462;-67
2021/09/01 09:23:49;;;;;;;12.47;11.27;;;;;;;19.91;84.33;97296.50;5048721;28;20394;-67
2021/09/01 09:26:28;;;;;;;11.70;10.60;;;;;;;19.87;82.64;97293.56;5076752;28;20816;-67
2021/09/01 09:29:09;;;;;;;12.17;11.07;;;;;;;19.95;81.78;97290.38;5092887;28;20416;-71
2021/09/01 09:31:35;;;;;;;9.47;8.47;;;;;;;20.05;83.11;97302.97;5092416;28;20404;-67
2021/09/01 09:34:11;;;;;;;9.27;8.47;;;;;;;20.28;81.96;97287.31;5094465;28;20479;-67
2021/09/01 09:36:37;;;;;;;10.60;9.60;;;;;;;20.37;82.16;97293.72;5096306;28;20893;-67
2021/09/01 09:39:04;;;;;;;10.20;9.30;;;;;;;20.30;82.39;97292.38;5096283;28;20410;-72
2021/09/01 09:41:30;;;;;;;9.23;8.43;;;;;;;20.43;81.72;97281.19;5076389;28;20182;-67
2021/09/01 09:44:05;;;;;;;7.37;6.67;;;;;;;20.53;80.54;97283.09;5075528;28;20961;-67
2021/09/01 09:46:44;;;;;;;7.93;7.20;;;;;;;20.57;79.18;97294.81;5075906;28;20244;-67
2021/09/01 09:49:09;;;;;;;6.90;6.20;;;;;;;20.65;79.03;97288.97;5075894;28;20883;-72
2021/09/01 09:51:41;;;;;;;7.00;6.40;;;;;;;20.89;77.63;97296.16;5075825;28;20492;-67
2021/09/01 09:54:20;;;;;;;7.43;6.67;;;;;;;20.89;75.87;97296.16;5066228;28;20232;-67
2021/09/01 09:56:46;;;;;;;7.50;6.50;;;;;;;20.79;76.91;97298.03;5075776;28;20405;-73
2021/09/01 09:59:17;;;;;;;7.27;6.50;;;;;;;20.96;76.22;97293.25;5075657;28;20416;-68
2021/09/01 10:01:44;;;;;;;6.10;5.60;;;;;;;20.77;74.38;97292.97;5075846;28;20409;-67
2021/09/01 10:04:10;;;;;;;5.97;5.30;;;;;;;20.76;74.46;97288.72;5075062;28;20455;-67
2021/09/01 10:06:35;;;;;;;5.80;5.20;;;;;;;20.70;74.68;97284.41;5075380;28;20457;-73
2021/09/01 10:09:04;;;;;;;6.60;5.80;;;;;;;20.67;74.06;97287.63;5064082;28;20513;-67
2021/09/01 10:11:31;;;;;;;6.00;5.50;;;;;;;20.89;73.01;97288.16;5055607;28;20258;-72
2021/09/01 10:13:56;;;;;;;6.93;6.23;;;;;;;21.04;71.39;97288.19;5054845;28;20422;-72
2021/09/01 10:16:22;;;;;;;6.60;5.97;;;;;;;21.24;72.66;97285.47;5055338;28;20422;-67
2021/09/01 10:18:49;;;;;;;4.87;4.47;;;;;;;21.39;70.68;97277.44;5053876;28;20171;-73
2021/09/01 10:21:16;;;;;;;5.00;4.50;;;;;;;21.52;69.44;97270.72;5055196;28;20172;-73
2021/09/01 10:23:46;;;;;;;5.20;4.80;;;;;;;21.62;73.01;97269.84;5067277;28;20424;-73
2021/09/01 10:26:30;;;;;;;6.50;5.90;;;;;;;21.69;70.86;97271.16;5074935;28;20974;-74
2021/09/01 10:28:59;;;;;;;7.80;7.00;;;;;;;21.77;71.24;97262.59;5075251;28;20405;-66
2021/09/01 10:31:33;;;;;;;6.37;5.87;;;;;;;21.82;68.05;97267.94;5075543;28;20470;-67
2021/09/01 10:34:19;;;;;;;6.03;5.43;;;;;;;22.00;68.26;97270.00;5074696;28;20499;-73
2021/09/01 10:36:52;;;;;;;5.37;4.97;;;;;;;22.10;67.00;97275.28;5074062;28;20410;-72
2021/09/01 10:39:38;;;;;;;5.70;5.20;;;;;;;22.07;67.20;97270.50;5055272;28;20422;-67
2021/09/01 10:42:34;;;;;;;6.00;5.33;;;;;;;22.11;65.42;97276.91;5054780;28;20593;-72
2021/09/01 10:44:59;;;;;;;5.27;4.77;;;;;;;22.10;65.53;97269.94;5054314;28;20453;-66
2021/09/01 10:47:25;;;;;;;6.10;5.60;;;;;;;22.07;65.28;97272.38;5054705;28;20912;-73
2021/09/01 10:49:59;;;;;;;5.80;5.30;;;;;;;22.15;66.69;97269.94;5064108;28;20206;-73
2021/09/01 10:52:25;;;;;;;6.00;5.50;;;;;;;22.19;67.77;97273.63;5074988;28;20178;-67
2021/09/01 10:54:50;;;;;;;5.70;5.20;;;;;;;22.31;69.06;97276.78;5074074;28;20980;-73
2021/09/01 10:57:24;;;;;;;5.40;4.87;;;;;;;22.36;63.72;97265.22;5074914;28;20195;-67
2021/09/01 10:59:50;;;;;;;5.00;4.60;;;;;;;22.38;64.47;97271.91;5074555;28;20245;-73
2021/09/01 11:02:18;;;;;;;6.03;5.53;;;;;;;22.54;63.59;97275.28;5074236;28;20401;-67
2021/09/01 11:04:51;;;;;;;5.80;5.20;;;;;;;22.56;63.83;97267.81;5073564;28;20792;-73
2021/09/01 11:07:30;;;;;;;5.53;4.87;;;;;;;22.47;63.95;97267.56;5058388;28;20422;-73
2021/09/01 11:09:55;;;;;;;4.67;4.27;;;;;;;22.52;63.38;97266.72;5053996;28;20442;-74
2021/09/01 11:12:22;;;;;;;4.93;4.53;;;;;;;22.31;64.00;97271.44;5054201;28;20425;-67
2021/09/01 11:14:49;;;;;;;7.33;5.30;;;;;;;22.18;64.03;97279.28;5053739;28;20191;-67
2021/09/01 11:17:21;;;;;;;5.57;5.07;;;;;;;22.28;65.61;97268.50;5066223;28;20415;-74
2021/09/01 11:19:49;;;;;;;5.30;4.80;;;;;;;22.33;63.48;97268.47;5094110;28;20473;-73
2021/09/01 11:22:18;;;;;;;7.23;5.30;;;;;;;22.42;63.92;97266.81;5074601;28;20508;-68
2021/09/01 11:24:59;;;;;;;5.60;5.07;;;;;;;22.56;65.57;97267.81;5059262;28;20450;-68